Time;durP1;ratioP1;P1;durP2;ratioP2;P2;SDS_P1;SDS_P2;PMS_P1;PMS_P2;Temp;Humidity;BMP_temperature;BMP_pressure;BME280_temperature;BME280_humidity;BME280_pressure;Samples;Min_cycle;Max_cycle;Signal;HPM_P1;HPM_P2
2021/04/24 00:00:38;;;;;;;10.82;6.53;;;9.50;74.10;;;;;;5009517;28;20132;-86
2021/04/24 00:03:05;;;;;;;12.23;6.30;;;9.50;74.40;;;;;;4982464;28;20474;-88
2021/04/24 00:05:35;;;;;;;11.70;5.95;;;9.40;74.20;;;;;;4998538;28;20072;-86
2021/04/24 00:08:03;;;;;;;9.87;5.90;;;9.40;74.40;;;;;;5010076;28;20030;-88
2021/04/24 00:10:31;;;;;;;11.20;6.10;;;9.40;74.70;;;;;;4998591;28;20030;-88
2021/04/24 00:12:58;;;;;;;10.75;5.78;;;9.40;74.90;;;;;;5015961;28;20029;-88
2021/04/24 00:15:23;;;;;;;11.90;6.15;;;9.30;75.10;;;;;;4998837;28;20026;-88
2021/04/24 00:17:49;;;;;;;11.32;6.30;;;9.30;75.50;;;;;;4982231;28;20394;-88
2021/04/24 00:20:19;;;;;;;9.63;5.82;;;9.20;75.20;;;;;;4995283;28;20027;-88
2021/04/24 00:22:45;;;;;;;12.77;6.50;;;9.30;74.80;;;;;;4998271;28;20030;-88
2021/04/24 00:25:11;;;;;;;10.98;5.80;;;9.20;75.30;;;;;;4998641;28;20044;-88
2021/04/24 00:27:37;;;;;;;9.88;6.13;;;9.20;75.60;;;;;;4998376;28;20118;-87
2021/04/24 00:30:06;;;;;;;11.95;6.75;;;9.20;75.50;;;;;;4990243;28;20169;-88
2021/04/24 00:32:31;;;;;;;13.02;6.57;;;9.10;76.00;;;;;;4984804;28;20034;-88
2021/04/24 00:34:57;;;;;;;10.55;6.30;;;9.10;76.20;;;;;;4998163;28;20037;-88
2021/04/24 00:37:23;;;;;;;10.30;5.95;;;9.10;76.70;;;;;;4998018;28;20518;-88
2021/04/24 00:39:48;;;;;;;10.05;6.38;;;9.10;76.30;;;;;;4998198;28;20022;-89
2021/04/24 00:42:14;;;;;;;10.23;5.95;;;9.00;76.40;;;;;;4962737;28;20037;-87
2021/04/24 00:44:47;;;;;;;13.18;6.05;;;9.00;76.50;;;;;;4975720;28;20092;-88
2021/04/24 00:47:14;;;;;;;10.40;5.82;;;9.00;76.70;;;;;;4981458;28;20061;-88
2021/04/24 00:49:40;;;;;;;11.75;6.35;;;8.90;76.90;;;;;;4997938;28;20030;-88
2021/04/24 00:52:06;;;;;;;12.13;6.13;;;8.90;77.30;;;;;;5015715;28;20080;-88
2021/04/24 00:54:32;;;;;;;12.15;6.40;;;8.90;77.10;;;;;;4996976;28;20052;-87
2021/04/24 00:56:57;;;;;;;10.57;6.15;;;8.80;77.30;;;;;;4981634;28;20539;-88
2021/04/24 00:59:24;;;;;;;10.23;5.97;;;8.90;77.80;;;;;;5015804;28;20034;-88
2021/04/24 01:01:50;;;;;;;11.13;5.72;;;8.80;77.80;;;;;;4998321;28;20029;-88
2021/04/24 01:04:15;;;;;;;10.43;6.20;;;8.80;77.60;;;;;;5014794;28;20021;-88
2021/04/24 01:06:41;;;;;;;10.88;6.43;;;8.80;77.80;;;;;;4978144;28;20506;-88
2021/04/24 01:09:06;;;;;;;13.35;6.72;;;8.70;77.80;;;;;;4995929;28;20382;-88
2021/04/24 01:11:32;;;;;;;9.60;5.60;;;8.70;77.70;;;;;;4981943;28;20053;-88
2021/04/24 01:13:58;;;;;;;11.73;5.88;;;8.70;78.30;;;;;;4977950;28;20038;-88
2021/04/24 01:16:24;;;;;;;11.05;5.50;;;8.70;78.00;;;;;;4997305;28;20021;-88
2021/04/24 01:18:51;;;;;;;11.70;6.07;;;8.70;78.40;;;;;;5014888;28;20113;-87
2021/04/24 01:21:21;;;;;;;10.27;5.97;;;8.60;78.50;;;;;;4997770;28;20037;-88
2021/04/24 01:23:47;;;;;;;12.18;6.00;;;8.60;78.80;;;;;;4997231;28;20032;-87
2021/04/24 01:26:13;;;;;;;11.02;5.95;;;8.60;78.60;;;;;;4981274;28;20026;-88
2021/04/24 01:28:39;;;;;;;11.10;5.65;;;8.60;78.80;;;;;;4965499;28;20033;-88
2021/04/24 01:31:05;;;;;;;12.02;6.20;;;8.50;78.50;;;;;;4981502;28;20133;-88
2021/04/24 01:33:30;;;;;;;11.32;6.30;;;8.50;78.80;;;;;;4998409;28;20462;-88
2021/04/24 01:35:56;;;;;;;12.63;6.22;;;8.50;79.00;;;;;;4989316;28;20026;-88
2021/04/24 01:38:22;;;;;;;13.73;6.20;;;8.40;79.10;;;;;;4958730;28;20026;-88
2021/04/24 01:40:47;;;;;;;12.38;6.35;;;8.40;79.50;;;;;;5014573;28;20410;-87
2021/04/24 01:43:13;;;;;;;13.57;6.18;;;8.40;80.00;;;;;;4968395;28;20449;-87
2021/04/24 01:45:39;;;;;;;10.52;5.63;;;8.40;80.20;;;;;;5009829;28;20482;-88
2021/04/24 01:48:07;;;;;;;11.75;6.20;;;8.30;80.00;;;;;;4995696;28;20041;-88
2021/04/24 01:50:36;;;;;;;12.48;6.40;;;8.30;79.70;;;;;;4990206;28;20015;-88
2021/04/24 01:53:05;;;;;;;14.02;6.20;;;8.30;79.80;;;;;;5007488;28;20065;-88
2021/04/24 01:55:33;;;;;;;12.80;5.70;;;8.20;79.70;;;;;;4995728;28;20029;-88
2021/04/24 01:58:01;;;;;;;12.75;6.30;;;8.20;80.00;;;;;;5013931;28;20033;-87
2021/04/24 02:00:34;;;;;;;13.18;6.20;;;8.20;80.40;;;;;;4995077;28;20053;-88
2021/04/24 02:03:04;;;;;;;13.40;7.22;;;8.20;80.30;;;;;;4992360;28;20490;-88
2021/04/24 02:05:30;;;;;;;10.43;6.15;;;8.10;80.70;;;;;;5014156;28;20030;-89
2021/04/24 02:08:08;;;;;;;13.23;7.03;;;8.10;80.50;;;;;;4982703;28;20029;-88
2021/04/24 02:10:35;;;;;;;10.40;6.03;;;8.10;80.60;;;;;;4996492;28;21307;-89
2021/04/24 02:13:07;;;;;;;10.40;6.38;;;8.10;81.10;;;;;;4979561;28;20204;-86
2021/04/24 02:15:33;;;;;;;10.35;6.32;;;8.10;81.20;;;;;;4993015;28;20105;-87
2021/04/24 02:17:58;;;;;;;9.43;5.75;;;8.10;81.30;;;;;;4979600;28;20056;-87
2021/04/24 02:20:24;;;;;;;9.90;5.55;;;8.00;81.90;;;;;;4980215;28;20386;-88
2021/04/24 02:22:50;;;;;;;10.93;6.07;;;8.00;81.40;;;;;;4979619;28;20037;-86
2021/04/24 02:25:20;;;;;;;11.95;6.07;;;8.00;81.60;;;;;;4996120;28;20030;-88
2021/04/24 02:27:47;;;;;;;9.13;5.70;;;8.00;81.60;;;;;;4995915;28;20359;-87
2021/04/24 02:30:17;;;;;;;11.68;6.47;;;7.90;81.80;;;;;;4983650;28;20045;-87
2021/04/24 02:32:43;;;;;;;12.82;6.00;;;7.90;82.10;;;;;;4976200;28;20025;-86
2021/04/24 02:35:12;;;;;;;9.35;6.25;;;7.90;82.20;;;;;;4987969;28;20034;-87
2021/04/24 02:37:38;;;;;;;12.18;6.57;;;7.90;82.00;;;;;;4996216;28;20022;-87
2021/04/24 02:40:06;;;;;;;14.40;6.43;;;7.80;82.30;;;;;;4995848;28;20462;-87
2021/04/24 02:42:32;;;;;;;11.73;6.18;;;7.80;82.30;;;;;;4996275;28;20022;-88
2021/04/24 02:45:05;;;;;;;15.23;6.65;;;7.80;82.30;;;;;;4976600;28;20030;-87
2021/04/24 02:47:30;;;;;;;11.82;6.22;;;7.80;82.50;;;;;;5008798;28;20642;-87
2021/04/24 02:49:56;;;;;;;12.25;6.00;;;7.70;82.50;;;;;;4996169;28;20065;-85
2021/04/24 02:52:22;;;;;;;12.20;6.20;;;7.70;82.70;;;;;;4996041;28;20069;-85
2021/04/24 02:54:47;;;;;;;10.82;5.97;;;7.70;82.70;;;;;;4991718;28;20676;-87
2021/04/24 02:57:13;;;;;;;10.50;6.63;;;7.70;83.00;;;;;;4987153;28;20394;-88
2021/04/24 02:59:39;;;;;;;11.80;6.60;;;7.70;83.00;;;;;;4991268;28;20428;-87
2021/04/24 03:02:04;;;;;;;11.30;6.07;;;7.70;83.20;;;;;;4962760;28;20530;-88
2021/04/24 03:04:30;;;;;;;12.60;6.57;;;7.60;83.00;;;;;;4976732;28;20064;-87
2021/04/24 03:06:56;;;;;;;11.73;6.40;;;7.60;83.30;;;;;;5007887;28;20414;-88
2021/04/24 03:09:21;;;;;;;13.20;6.88;;;7.60;83.40;;;;;;5013674;28;20032;-87
2021/04/24 03:11:47;;;;;;;12.43;7.05;;;7.60;83.50;;;;;;4985907;28;20041;-88
2021/04/24 03:14:13;;;;;;;14.60;7.25;;;7.60;83.40;;;;;;4989393;28;20042;-88
2021/04/24 03:16:39;;;;;;;10.60;6.53;;;7.60;83.60;;;;;;5004578;28;20107;-87
2021/04/24 03:19:06;;;;;;;14.65;6.13;;;7.50;84.00;;;;;;5024725;28;20022;-88
2021/04/24 03:21:32;;;;;;;12.18;6.65;;;7.50;84.00;;;;;;4989188;28;20113;-88
2021/04/24 03:23:59;;;;;;;12.65;6.20;;;7.50;83.90;;;;;;4983723;28;20625;-88
2021/04/24 03:26:24;;;;;;;12.20;6.10;;;7.40;83.60;;;;;;4998646;28;20026;-88
2021/04/24 03:28:51;;;;;;;11.77;6.38;;;7.40;83.80;;;;;;5000230;28;20470;-88
2021/04/24 03:31:17;;;;;;;11.88;6.38;;;7.40;84.00;;;;;;4999742;28;20037;-88
2021/04/24 03:33:43;;;;;;;10.63;6.13;;;7.40;83.80;;;;;;4999737;28;20116;-89
2021/04/24 03:36:10;;;;;;;11.32;6.28;;;7.40;83.70;;;;;;4999295;28;20105;-88
2021/04/24 03:38:36;;;;;;;10.13;6.20;;;7.30;84.30;;;;;;4999329;28;20022;-87
2021/04/24 03:41:03;;;;;;;12.20;6.10;;;7.30;84.20;;;;;;4999294;28;20030;-89
2021/04/24 03:43:29;;;;;;;11.27;6.18;;;7.30;84.30;;;;;;4999808;28;20425;-88
2021/04/24 03:45:55;;;;;;;16.17;6.18;;;7.30;84.70;;;;;;4999590;28;20057;-88
2021/04/24 03:48:20;;;;;;;10.32;5.70;;;7.20;85.40;;;;;;4995213;28;20030;-88
2021/04/24 03:50:46;;;;;;;10.88;5.82;;;7.20;84.80;;;;;;4958285;28;20437;-88
2021/04/24 03:53:12;;;;;;;14.38;6.05;;;7.20;84.60;;;;;;4981444;28;20472;-89
2021/04/24 03:55:37;;;;;;;10.88;5.82;;;7.10;84.10;;;;;;4999386;28;20032;-88
2021/04/24 03:58:03;;;;;;;13.90;7.25;;;7.10;84.30;;;;;;4978066;28;20505;-89
2021/04/24 04:00:30;;;;;;;10.90;6.00;;;7.10;84.30;;;;;;5007886;28;20072;-89
2021/04/24 04:03:00;;;;;;;11.75;5.82;;;7.00;84.80;;;;;;4998578;28;20022;-87
2021/04/24 04:05:38;;;;;;;10.75;5.55;;;7.00;84.10;;;;;;4997730;28;20030;-88
2021/04/24 04:08:05;;;;;;;12.38;6.20;;;6.90;83.80;;;;;;4987218;28;20018;-89
2021/04/24 04:10:33;;;;;;;11.35;6.43;;;6.90;84.20;;;;;;4999426;28;20034;-88
2021/04/24 04:13:00;;;;;;;12.55;6.93;;;6.80;84.30;;;;;;4998706;28;20737;-88
2021/04/24 04:15:27;;;;;;;10.55;6.10;;;6.80;84.70;;;;;;4983967;28;20054;-88
2021/04/24 04:18:06;;;;;;;10.13;6.13;;;6.80;84.50;;;;;;4998774;28;20037;-89
2021/04/24 04:20:33;;;;;;;12.75;6.47;;;6.70;84.90;;;;;;4986392;28;20045;-89
2021/04/24 04:22:59;;;;;;;13.60;6.65;;;6.60;84.70;;;;;;4966371;28;20034;-88
2021/04/24 04:25:25;;;;;;;10.80;6.32;;;6.60;84.60;;;;;;4982454;28;20474;-86
2021/04/24 04:27:52;;;;;;;10.65;5.88;;;6.60;84.80;;;;;;4998291;28;20030;-88
2021/04/24 04:30:20;;;;;;;11.00;5.82;;;6.60;85.00;;;;;;4982321;28;20026;-88
2021/04/24 04:32:46;;;;;;;11.80;6.57;;;6.50;85.50;;;;;;4998033;28;20049;-88
2021/04/24 04:35:13;;;;;;;10.88;5.95;;;6.50;85.80;;;;;;4978918;28;20081;-88
2021/04/24 04:37:39;;;;;;;11.20;6.07;;;6.50;86.00;;;;;;4960392;28;20465;-89
2021/04/24 04:40:07;;;;;;;10.48;5.85;;;6.40;86.00;;;;;;4978763;28;20062;-88
2021/04/24 04:42:33;;;;;;;10.68;6.10;;;6.50;85.90;;;;;;4995109;28;20018;-89
2021/04/24 04:44:59;;;;;;;12.07;6.57;;;6.50;85.70;;;;;;4996854;28;20036;-88
2021/04/24 04:47:24;;;;;;;13.77;6.47;;;6.40;85.90;;;;;;5015211;28;20112;-88
2021/04/24 04:49:50;;;;;;;11.38;6.40;;;6.40;86.40;;;;;;4980834;28;20386;-89
2021/04/24 04:52:16;;;;;;;14.27;6.20;;;6.40;86.90;;;;;;4997941;28;20046;-87
2021/04/24 04:54:42;;;;;;;11.93;6.30;;;6.40;87.00;;;;;;4980896;28;20030;-88
2021/04/24 04:57:07;;;;;;;11.70;6.13;;;6.40;87.50;;;;;;4998358;28;20513;-88
2021/04/24 04:59:33;;;;;;;12.65;6.70;;;6.40;87.90;;;;;;4998249;28;20037;-89
2021/04/24 05:01:59;;;;;;;14.57;6.20;;;6.50;88.40;;;;;;4997980;28;20041;-86
2021/04/24 05:04:25;;;;;;;13.57;6.47;;;6.50;88.50;;;;;;4979028;28;20039;-88
2021/04/24 05:06:50;;;;;;;11.35;6.25;;;6.50;88.90;;;;;;4982088;28;20051;-87
2021/04/24 05:09:19;;;;;;;11.40;5.80;;;6.50;89.20;;;;;;4997692;28;20025;-88
2021/04/24 05:11:45;;;;;;;11.25;6.15;;;6.50;89.40;;;;;;4998041;28;20198;-88
2021/04/24 05:14:11;;;;;;;9.18;5.18;;;6.60;89.60;;;;;;4997841;28;20034;-88
2021/04/24 05:16:37;;;;;;;12.57;5.75;;;6.60;89.30;;;;;;4998000;28;20053;-88
2021/04/24 05:19:03;;;;;;;10.18;5.53;;;6.60;89.50;;;;;;4997453;28;20581;-89
2021/04/24 05:21:29;;;;;;;12.73;5.85;;;6.70;89.70;;;;;;4981587;28;20022;-88
2021/04/24 05:23:55;;;;;;;10.73;6.05;;;6.70;89.70;;;;;;4997377;28;20149;-88
2021/04/24 05:26:21;;;;;;;11.32;6.07;;;6.80;89.90;;;;;;4981743;28;20080;-88
2021/04/24 05:28:47;;;;;;;10.70;5.40;;;6.80;89.90;;;;;;4981492;28;20475;-89
2021/04/24 05:31:12;;;;;;;8.13;4.65;;;6.80;90.30;;;;;;4997460;28;20026;-88
2021/04/24 05:33:38;;;;;;;11.75;5.88;;;6.90;90.00;;;;;;4997481;28;20080;-89
2021/04/24 05:36:09;;;;;;;9.35;5.38;;;6.90;90.00;;;;;;4997340;28;20065;-88
2021/04/24 05:38:35;;;;;;;9.98;5.07;;;7.00;89.90;;;;;;4997250;28;20026;-88
2021/04/24 05:41:00;;;;;;;10.63;5.00;;;7.00;90.00;;;;;;4997106;28;20030;-88
2021/04/24 05:43:26;;;;;;;10.27;4.82;;;7.00;90.00;;;;;;4977600;28;20074;-86
2021/04/24 05:45:51;;;;;;;8.45;4.70;;;7.10;89.90;;;;;;4997582;28;20034;-88
2021/04/24 05:48:17;;;;;;;8.23;4.43;;;7.10;89.80;;;;;;4964620;28;20029;-87
2021/04/24 05:50:43;;;;;;;9.85;4.78;;;7.10;89.60;;;;;;4980951;28;20037;-88
2021/04/24 05:53:09;;;;;;;9.68;4.85;;;7.20;89.70;;;;;;4996497;28;20057;-88
2021/04/24 05:55:36;;;;;;;8.35;4.63;;;7.20;89.70;;;;;;4979376;28;20401;-88
2021/04/24 05:58:02;;;;;;;8.80;3.95;;;7.30;89.50;;;;;;4980709;28;20373;-89
2021/04/24 06:00:28;;;;;;;9.38;4.00;;;7.30;89.40;;;;;;4980698;28;20030;-88
2021/04/24 06:02:53;;;;;;;7.65;4.10;;;7.40;89.30;;;;;;4980728;28;20030;-88
2021/04/24 06:05:19;;;;;;;10.40;4.68;;;7.40;89.50;;;;;;4992716;28;20080;-88
2021/04/24 06:07:45;;;;;;;8.93;4.03;;;7.50;89.40;;;;;;4991502;28;20027;-89
2021/04/24 06:10:14;;;;;;;7.00;3.90;;;7.50;89.30;;;;;;4988488;28;20037;-88
2021/04/24 06:12:40;;;;;;;7.70;4.05;;;7.60;89.00;;;;;;5002022;28;20026;-89
2021/04/24 06:15:10;;;;;;;8.02;3.70;;;7.60;89.00;;;;;;4977141;28;20033;-89
2021/04/24 06:17:36;;;;;;;11.18;3.65;;;7.60;88.90;;;;;;4992957;28;20037;-88
2021/04/24 06:20:02;;;;;;;6.60;3.85;;;7.70;88.90;;;;;;4996471;28;20038;-89
2021/04/24 06:22:28;;;;;;;6.18;3.38;;;7.70;88.80;;;;;;4979716;28;20053;-88
2021/04/24 06:24:53;;;;;;;7.25;3.67;;;7.80;88.70;;;;;;4975479;28;20064;-88
2021/04/24 06:27:19;;;;;;;7.43;3.63;;;7.80;88.60;;;;;;4990517;28;20114;-88
2021/04/24 06:29:45;;;;;;;7.53;3.38;;;7.80;88.60;;;;;;4986353;28;20069;-89
2021/04/24 06:32:10;;;;;;;6.55;3.30;;;7.90;88.50;;;;;;4972925;28;20021;-89
2021/04/24 06:34:36;;;;;;;7.78;3.38;;;7.90;88.40;;;;;;4987269;28;20041;-89
2021/04/24 06:37:02;;;;;;;9.07;3.95;;;8.00;88.40;;;;;;4976966;28;20100;-89
2021/04/24 06:39:28;;;;;;;5.60;3.30;;;8.00;88.60;;;;;;4984468;28;20037;-88
2021/04/24 06:41:54;;;;;;;6.85;3.60;;;8.10;88.40;;;;;;4993996;28;20030;-88
2021/04/24 06:44:19;;;;;;;7.97;3.70;;;8.20;88.20;;;;;;4966623;28;20023;-88
2021/04/24 06:46:45;;;;;;;6.60;3.95;;;8.20;88.30;;;;;;4986963;28;20057;-89
2021/04/24 06:49:11;;;;;;;9.95;4.63;;;8.30;88.40;;;;;;4977196;28;20058;-90
2021/04/24 06:51:38;;;;;;;8.93;4.35;;;8.40;88.50;;;;;;4983414;28;20117;-88
2021/04/24 06:54:05;;;;;;;8.75;4.85;;;8.40;88.20;;;;;;5007846;28;20169;-88
2021/04/24 06:56:30;;;;;;;10.57;4.82;;;8.50;88.50;;;;;;4993984;28;20023;-89
2021/04/24 06:58:57;;;;;;;8.23;4.10;;;8.50;88.10;;;;;;4997490;28;20118;-89
2021/04/24 07:01:23;;;;;;;12.65;4.93;;;8.60;88.10;;;;;;4997361;28;20040;-88
2021/04/24 07:03:48;;;;;;;8.13;4.35;;;8.60;87.60;;;;;;4982275;28;20031;-88
2021/04/24 07:06:14;;;;;;;11.55;4.03;;;8.70;87.50;;;;;;4980809;28;20057;-88
2021/04/24 07:08:40;;;;;;;8.40;4.45;;;8.70;87.30;;;;;;4997388;28;20033;-88
2021/04/24 07:11:06;;;;;;;9.27;4.35;;;8.80;87.30;;;;;;5001433;28;20200;-88
2021/04/24 07:13:32;;;;;;;7.97;3.97;;;8.90;87.10;;;;;;4987966;28;20035;-88
2021/04/24 07:16:02;;;;;;;7.72;3.58;;;9.00;87.00;;;;;;4993804;28;20066;-87
2021/04/24 07:18:29;;;;;;;7.28;3.20;;;9.10;86.90;;;;;;4992980;28;20105;-88
2021/04/24 07:20:54;;;;;;;4.35;2.45;;;9.20;86.60;;;;;;4985009;28;20033;-89
2021/04/24 07:23:20;;;;;;;9.32;2.72;;;9.20;86.30;;;;;;4975542;28;20117;-88
2021/04/24 07:25:46;;;;;;;7.55;4.30;;;9.30;85.80;;;;;;4973469;28;20043;-88
2021/04/24 07:28:11;;;;;;;8.88;4.35;;;9.40;85.20;;;;;;4975793;28;20023;-89
2021/04/24 07:30:37;;;;;;;7.18;3.75;;;9.40;83.60;;;;;;4976206;28;20034;-89
2021/04/24 07:33:02;;;;;;;6.63;3.38;;;9.50;83.70;;;;;;4976489;28;20383;-90
2021/04/24 07:35:28;;;;;;;5.80;3.22;;;9.60;83.50;;;;;;4973345;28;20513;-89
2021/04/24 07:37:54;;;;;;;6.03;3.05;;;9.60;83.50;;;;;;4970858;28;20529;-88
2021/04/24 07:40:19;;;;;;;6.93;2.83;;;9.70;82.40;;;;;;4991444;28;20704;-89
2021/04/24 07:42:45;;;;;;;7.80;2.90;;;9.80;81.00;;;;;;4974079;28;20065;-90
2021/04/24 07:45:13;;;;;;;7.03;3.00;;;9.90;77.20;;;;;;4986817;28;20030;-90
2021/04/24 07:47:42;;;;;;;7.97;3.20;;;9.90;77.50;;;;;;4993231;28;20114;-88
2021/04/24 07:50:08;;;;;;;7.95;3.45;;;10.00;78.00;;;;;;4992133;28;20027;-87
2021/04/24 07:52:34;;;;;;;8.85;3.20;;;10.10;77.80;;;;;;4991698;28;20049;-87
2021/04/24 07:55:00;;;;;;;4.60;2.65;;;10.10;77.50;;;;;;4976391;28;20038;-88
2021/04/24 07:57:28;;;;;;;6.50;2.53;;;10.20;78.00;;;;;;4988979;28;20031;-88
2021/04/24 07:59:54;;;;;;;4.10;2.17;;;10.30;77.60;;;;;;4987892;28;20029;-89
2021/04/24 08:02:20;;;;;;;3.45;1.90;;;10.40;75.60;;;;;;4992230;28;20455;-88
2021/04/24 08:04:45;;;;;;;4.68;2.03;;;10.50;76.50;;;;;;4983824;28;20113;-86
2021/04/24 08:07:11;;;;;;;7.57;2.53;;;10.60;76.50;;;;;;4991683;28;20138;-90
2021/04/24 08:09:37;;;;;;;4.72;1.80;;;10.60;76.50;;;;;;4991543;28;20061;-87
2021/04/24 08:12:04;;;;;;;4.90;2.67;;;10.70;73.20;;;;;;4987358;28;20047;-89
2021/04/24 08:14:30;;;;;;;3.90;2.20;;;10.80;71.30;;;;;;4992044;28;20033;-89
2021/04/24 08:16:55;;;;;;;4.30;2.25;;;10.90;73.60;;;;;;4989937;28;20113;-90
2021/04/24 08:19:21;;;;;;;3.95;1.90;;;11.00;74.10;;;;;;4975197;28;20483;-89
2021/04/24 08:21:48;;;;;;;5.80;2.40;;;11.10;74.10;;;;;;4967074;28;20037;-89
2021/04/24 08:24:14;;;;;;;5.85;2.17;;;11.20;73.80;;;;;;4994518;28;20030;-91
2021/04/24 08:26:40;;;;;;;4.38;1.75;;;11.40;73.50;;;;;;4986866;28;20035;-89
2021/04/24 08:29:07;;;;;;;3.72;1.90;;;11.50;73.60;;;;;;4977810;28;20022;-88
2021/04/24 08:31:34;;;;;;;5.78;2.28;;;11.60;68.80;;;;;;4979088;28;20030;-89
2021/04/24 08:34:00;;;;;;;2.95;1.88;;;11.70;66.90;;;;;;4994809;28;20113;-88
2021/04/24 08:36:26;;;;;;;3.42;1.92;;;11.80;67.80;;;;;;4992156;28;20092;-88
2021/04/24 08:38:52;;;;;;;3.40;1.95;;;11.80;65.40;;;;;;4992803;28;20022;-88
2021/04/24 08:41:18;;;;;;;3.63;1.75;;;11.80;66.90;;;;;;4994502;28;20030;-88
2021/04/24 08:43:44;;;;;;;4.25;2.00;;;11.90;66.90;;;;;;4994702;28;20066;-88
2021/04/24 08:46:18;;;;;;;5.80;2.45;;;12.00;67.70;;;;;;4988391;28;20042;-88
2021/04/24 08:48:44;;;;;;;6.68;2.95;;;12.10;68.70;;;;;;4989492;28;20034;-87
2021/04/24 08:51:13;;;;;;;3.63;2.10;;;12.20;68.40;;;;;;4994541;28;20030;-87
2021/04/24 08:53:39;;;;;;;4.95;2.22;;;12.30;66.10;;;;;;5008941;28;20068;-88
2021/04/24 08:56:05;;;;;;;6.57;2.25;;;12.30;65.90;;;;;;4980912;28;20466;-88
2021/04/24 08:58:33;;;;;;;2.25;1.67;;;12.40;65.10;;;;;;4977845;28;20507;-86
2021/04/24 09:00:58;;;;;;;3.72;2.00;;;12.40;62.80;;;;;;4988639;28;20033;-88
2021/04/24 09:03:24;;;;;;;5.07;2.25;;;12.50;64.00;;;;;;4997173;28;20029;-89
2021/04/24 09:05:52;;;;;;;3.63;2.25;;;12.60;65.60;;;;;;4978340;28;20034;-88
2021/04/24 09:08:28;;;;;;;3.28;2.00;;;12.70;64.30;;;;;;4983050;28;20033;-88
2021/04/24 09:10:59;;;;;;;5.15;2.38;;;12.80;65.10;;;;;;5014073;28;20028;-90
2021/04/24 09:13:28;;;;;;;3.88;2.20;;;12.80;65.10;;;;;;4997921;28;20528;-88
2021/04/24 09:15:55;;;;;;;4.78;2.90;;;12.90;62.30;;;;;;4978370;28;20122;-87
2021/04/24 09:18:22;;;;;;;4.45;2.72;;;13.00;63.40;;;;;;4993977;28;20104;-87
2021/04/24 09:21:00;;;;;;;3.90;2.15;;;13.10;64.00;;;;;;4981120;28;20033;-88
2021/04/24 09:23:36;;;;;;;5.80;2.47;;;13.10;65.10;;;;;;5013698;28;20112;-86
2021/04/24 09:26:05;;;;;;;4.45;2.55;;;13.20;63.30;;;;;;4977255;28;20062;-86
2021/04/24 09:28:37;;;;;;;5.10;2.90;;;13.30;64.80;;;;;;4995681;28;20044;-88
2021/04/24 09:31:23;;;;;;;5.70;2.60;;;13.40;63.00;;;;;;5014128;28;20117;-87
2021/04/24 09:33:51;;;;;;;4.90;2.92;;;13.50;62.40;;;;;;5014359;28;20076;-88
2021/04/24 09:36:17;;;;;;;4.60;2.33;;;13.50;63.20;;;;;;4990951;28;20545;-86
2021/04/24 09:38:50;;;;;;;5.22;2.90;;;13.60;62.60;;;;;;4979413;28;20116;-85
2021/04/24 09:41:27;;;;;;;5.03;2.60;;;13.70;60.90;;;;;;5013039;28;20025;-84
2021/04/24 09:44:00;;;;;;;3.83;2.15;;;13.70;61.80;;;;;;4991830;28;20029;-85
2021/04/24 09:46:48;;;;;;;3.42;2.00;;;13.80;61.10;;;;;;5012878;28;20080;-86
2021/04/24 09:49:20;;;;;;;5.18;2.00;;;13.90;61.30;;;;;;4995732;28;20469;-85
2021/04/24 09:51:48;;;;;;;4.63;1.90;;;13.90;59.60;;;;;;4997174;28;20026;-85
2021/04/24 09:54:15;;;;;;;3.55;1.70;;;14.00;60.20;;;;;;4992548;28;20494;-84
2021/04/24 09:56:41;;;;;;;2.50;1.83;;;14.10;59.90;;;;;;4977123;28;20108;-87
2021/04/24 09:59:10;;;;;;;2.80;1.48;;;14.20;57.70;;;;;;4997214;28;20021;-86
2021/04/24 10:01:38;;;;;;;2.58;1.60;;;14.30;57.90;;;;;;4996593;28;20018;-86
2021/04/24 10:04:10;;;;;;;2.90;1.40;;;14.40;58.80;;;;;;4960975;28;20037;-86
2021/04/24 10:06:42;;;;;;;3.35;1.50;;;14.50;58.50;;;;;;4990255;28;20040;-87
2021/04/24 10:09:13;;;;;;;3.15;1.80;;;14.60;58.40;;;;;;4996399;28;20482;-85
2021/04/24 10:11:41;;;;;;;4.80;2.00;;;14.70;58.20;;;;;;4983708;28;20026;-87
2021/04/24 10:14:07;;;;;;;3.35;1.90;;;14.90;57.30;;;;;;4977463;28;20036;-89
2021/04/24 10:16:43;;;;;;;3.38;1.75;;;15.00;58.00;;;;;;4977158;28;20026;-89
2021/04/24 10:19:16;;;;;;;4.13;2.35;;;15.10;57.70;;;;;;4995022;28;20421;-86
2021/04/24 10:21:43;;;;;;;2.13;1.42;;;15.20;57.00;;;;;;4980718;28;20113;-83
2021/04/24 10:24:10;;;;;;;2.40;1.80;;;15.40;57.20;;;;;;4995648;28;20162;-85
2021/04/24 10:26:37;;;;;;;3.22;1.98;;;15.40;55.20;;;;;;4995565;28;20021;-87
2021/04/24 10:29:04;;;;;;;3.92;1.77;;;15.50;55.50;;;;;;4979693;28;20422;-87
2021/04/24 10:31:31;;;;;;;7.57;1.70;;;15.60;54.20;;;;;;4995936;28;20032;-86
2021/04/24 10:34:01;;;;;;;3.63;1.73;;;15.70;55.20;;;;;;4976519;28;20129;-85
2021/04/24 10:36:28;;;;;;;3.20;2.00;;;15.80;55.40;;;;;;4993712;28;20026;-87
2021/04/24 10:38:54;;;;;;;2.10;1.50;;;15.80;51.00;;;;;;4987693;28;20494;-86
2021/04/24 10:41:48;;;;;;;2.53;1.77;;;15.90;52.10;;;;;;5007309;28;20042;-86
2021/04/24 10:44:15;;;;;;;3.22;1.73;;;16.00;50.10;;;;;;4992866;28;20049;-84
2021/04/24 10:46:49;;;;;;;3.45;1.90;;;16.00;50.50;;;;;;5000126;28;20022;-85
2021/04/24 10:49:28;;;;;;;3.28;1.80;;;16.10;52.70;;;;;;5035505;28;20064;-86
2021/04/24 10:52:01;;;;;;;3.03;2.25;;;16.10;52.60;;;;;;5017576;28;20006;-85
2021/04/24 10:54:32;;;;;;;2.97;2.00;;;16.20;52.70;;;;;;5014721;28;20046;-85
2021/04/24 10:57:00;;;;;;;2.90;2.08;;;16.30;51.70;;;;;;5014128;28;20056;-86
2021/04/24 10:59:29;;;;;;;4.65;2.20;;;16.40;51.90;;;;;;5001887;28;20128;-86
2021/04/24 11:02:05;;;;;;;3.17;1.98;;;16.50;51.30;;;;;;5011282;28;20030;-85
2021/04/24 11:04:44;;;;;;;3.67;1.90;;;16.60;51.00;;;;;;4995083;28;20064;-86
2021/04/24 11:07:24;;;;;;;4.63;1.83;;;16.60;50.30;;;;;;4982815;28;20069;-82
2021/04/24 11:10:11;;;;;;;4.40;2.20;;;16.60;49.80;;;;;;4994673;28;20030;-86
2021/04/24 11:12:48;;;;;;;3.92;1.85;;;16.70;50.80;;;;;;4995310;28;20018;-87
2021/04/24 11:15:21;;;;;;;4.15;1.92;;;16.70;51.80;;;;;;4992105;28;20036;-90
2021/04/24 11:17:50;;;;;;;2.33;1.75;;;16.70;52.70;;;;;;5010627;28;20084;-87
2021/04/24 11:20:47;;;;;;;4.03;2.25;;;16.70;51.20;;;;;;4976805;28;20085;-86
2021/04/24 11:23:35;;;;;;;4.00;2.63;;;16.80;52.50;;;;;;5009036;28;20113;-87
2021/04/24 11:26:03;;;;;;;3.97;2.00;;;16.90;51.40;;;;;;4990964;28;20093;-85
2021/04/24 11:28:30;;;;;;;5.25;2.10;;;16.90;50.80;;;;;;4990911;28;20029;-85
2021/04/24 11:31:04;;;;;;;3.40;2.33;;;16.90;49.50;;;;;;5011931;28;20018;-84
2021/04/24 11:33:44;;;;;;;4.63;2.40;;;16.90;51.20;;;;;;5011303;28;20022;-85
2021/04/24 11:36:22;;;;;;;4.77;2.47;;;17.00;52.90;;;;;;4991569;28;20022;-85
2021/04/24 11:39:00;;;;;;;5.03;2.60;;;17.10;51.70;;;;;;4973361;28;20034;-85
2021/04/24 11:41:32;;;;;;;5.13;3.10;;;17.10;52.40;;;;;;4993979;28;20152;-85
2021/04/24 11:43:59;;;;;;;4.57;2.88;;;17.20;51.10;;;;;;4978055;28;20395;-85
2021/04/24 11:46:39;;;;;;;6.03;2.45;;;17.20;52.50;;;;;;4976755;28;20060;-86
2021/04/24 11:49:17;;;;;;;5.53;3.08;;;17.30;53.00;;;;;;4995724;28;20026;-88
2021/04/24 11:51:46;;;;;;;7.07;3.05;;;17.40;51.40;;;;;;4995945;28;20022;-85
2021/04/24 11:54:19;;;;;;;4.60;2.90;;;17.50;50.50;;;;;;5005624;28;20514;-85
2021/04/24 11:56:46;;;;;;;6.72;3.50;;;17.50;50.40;;;;;;4991503;28;20022;-88
2021/04/24 11:59:12;;;;;;;4.68;2.85;;;17.50;51.00;;;;;;4997129;28;20022;-88
2021/04/24 12:01:39;;;;;;;6.15;3.40;;;17.50;51.40;;;;;;4993879;28;20482;-88
2021/04/24 12:04:05;;;;;;;6.18;2.92;;;17.60;52.10;;;;;;4996891;28;20022;-92
2021/04/24 12:06:39;;;;;;;5.57;2.92;;;17.60;51.00;;;;;;4986688;28;20376;-85
2021/04/24 12:09:15;;;;;;;6.72;3.47;;;17.70;50.60;;;;;;4995294;28;20030;-84
2021/04/24 12:11:56;;;;;;;5.43;3.38;;;17.70;51.80;;;;;;4991026;28;20029;-89
2021/04/24 12:14:23;;;;;;;5.65;3.53;;;17.70;51.40;;;;;;4997978;28;20041;-88
2021/04/24 12:16:50;;;;;;;8.60;3.50;;;17.70;52.20;;;;;;4978634;28;20034;-87
2021/04/24 12:19:34;;;;;;;6.45;2.90;;;17.70;51.10;;;;;;4961091;28;20038;-85
2021/04/24 12:22:09;;;;;;;6.15;3.50;;;17.70;50.80;;;;;;4995553;28;20022;-86
2021/04/24 12:24:49;;;;;;;8.90;3.58;;;17.70;51.20;;;;;;4996223;28;20165;-89
2021/04/24 12:27:22;;;;;;;5.03;2.88;;;17.70;49.60;;;;;;4983298;28;20037;-85
2021/04/24 12:29:50;;;;;;;6.20;3.33;;;17.70;51.40;;;;;;4997002;28;20073;-86
2021/04/24 12:32:18;;;;;;;6.40;3.08;;;17.70;50.80;;;;;;4979463;28;20029;-85
2021/04/24 12:34:44;;;;;;;6.68;2.80;;;17.60;50.70;;;;;;4995777;28;20030;-89
2021/04/24 12:37:12;;;;;;;6.05;3.28;;;17.60;51.40;;;;;;4963570;28;20386;-85
2021/04/24 12:39:38;;;;;;;5.70;3.10;;;17.60;51.50;;;;;;4997196;28;20022;-91
2021/04/24 12:42:08;;;;;;;6.53;2.92;;;17.60;52.00;;;;;;4995243;28;20030;-86
2021/04/24 12:44:34;;;;;;;5.05;3.15;;;17.70;52.70;;;;;;4994937;28;20035;-87
2021/04/24 12:47:00;;;;;;;6.63;3.55;;;17.70;50.60;;;;;;4995833;28;20038;-90
2021/04/24 12:49:27;;;;;;;10.00;4.00;;;17.70;51.10;;;;;;4995231;28;20022;-86
2021/04/24 12:52:07;;;;;;;5.88;3.33;;;17.70;52.50;;;;;;4996248;28;20061;-86